Time;durP1;ratioP1;P1;durP2;ratioP2;P2;SDS_P1;SDS_P2;PMS_P1;PMS_P2;Temp;Humidity;BMP_temperature;BMP_pressure;BME280_temperature;BME280_humidity;BME280_pressure;Samples;Min_cycle;Max_cycle;Signal;HPM_P1;HPM_P2
2023/12/18 00:01:57;;;;;;;12.05;5.13;;;;;;;;;;5038518;28;20135;-68
2023/12/18 00:04:25;;;;;;;12.75;5.68;;;;;;;;;;5036680;28;20053;-69
2023/12/18 00:06:54;;;;;;;11.23;5.05;;;;;;;;;;5040232;28;20152;-66
2023/12/18 00:09:22;;;;;;;8.20;5.15;;;;;;;;;;5036195;28;20436;-65
2023/12/18 00:11:51;;;;;;;9.13;5.03;;;;;;;;;;5037568;28;20436;-69
2023/12/18 00:14:19;;;;;;;12.43;5.88;;;;;;;;;;5038902;28;20048;-67
2023/12/18 00:16:48;;;;;;;9.02;5.82;;;;;;;;;;5035578;28;20291;-67
2023/12/18 00:19:17;;;;;;;10.32;5.55;;;;;;;;;;5032908;28;20049;-67
2023/12/18 00:21:46;;;;;;;9.27;5.10;;;;;;;;;;5035638;28;20049;-67
2023/12/18 00:24:14;;;;;;;10.10;5.75;;;;;;;;;;5034411;28;20732;-68
2023/12/18 00:26:43;;;;;;;10.95;5.13;;;;;;;;;;5034989;28;20499;-67
2023/12/18 00:29:11;;;;;;;10.45;5.60;;;;;;;;;;5035347;28;20077;-65
2023/12/18 00:31:40;;;;;;;11.35;4.93;;;;;;;;;;5037745;28;20057;-68
2023/12/18 00:34:08;;;;;;;8.18;5.07;;;;;;;;;;5038715;28;20423;-65
2023/12/18 00:36:38;;;;;;;10.68;5.45;;;;;;;;;;5036662;28;20048;-66
2023/12/18 00:39:06;;;;;;;9.20;4.95;;;;;;;;;;5035218;28;20083;-65
2023/12/18 00:41:35;;;;;;;8.27;5.00;;;;;;;;;;5038937;28;20756;-69
2023/12/18 00:44:03;;;;;;;9.82;5.80;;;;;;;;;;5038790;28;20103;-66
2023/12/18 00:46:31;;;;;;;9.38;5.25;;;;;;;;;;5030992;28;20053;-66
2023/12/18 00:49:00;;;;;;;8.45;5.38;;;;;;;;;;5039337;28;20079;-65
2023/12/18 00:51:28;;;;;;;10.60;5.40;;;;;;;;;;5036453;28;20106;-68
2023/12/18 00:53:58;;;;;;;13.85;5.75;;;;;;;;;;5038911;28;20057;-67
2023/12/18 00:56:26;;;;;;;11.38;5.75;;;;;;;;;;5034908;28;20045;-68
2023/12/18 00:58:55;;;;;;;9.60;5.18;;;;;;;;;;5036658;28;20456;-66
2023/12/18 01:01:23;;;;;;;7.55;5.25;;;;;;;;;;5036328;28;20486;-64
2023/12/18 01:03:52;;;;;;;9.18;5.55;;;;;;;;;;5039235;28;20056;-67
2023/12/18 01:06:20;;;;;;;7.85;4.72;;;;;;;;;;5032995;28;20050;-66
2023/12/18 01:08:49;;;;;;;8.18;5.05;;;;;;;;;;5034648;28;20136;-64
2023/12/18 01:11:18;;;;;;;9.23;5.82;;;;;;;;;;5036433;28;20514;-64
2023/12/18 01:13:47;;;;;;;9.02;4.80;;;;;;;;;;5037501;28;20092;-71
2023/12/18 01:16:15;;;;;;;12.93;5.63;;;;;;;;;;5034231;28;20100;-68
2023/12/18 01:18:45;;;;;;;7.30;4.60;;;;;;;;;;5033785;28;20045;-68
2023/12/18 01:21:14;;;;;;;7.95;4.50;;;;;;;;;;5035199;28;20053;-67
2023/12/18 01:23:43;;;;;;;9.13;4.78;;;;;;;;;;5036566;28;20095;-64
2023/12/18 01:26:11;;;;;;;8.45;4.40;;;;;;;;;;5034267;28;20045;-64
2023/12/18 01:28:41;;;;;;;10.93;5.40;;;;;;;;;;5033661;28;20076;-67
2023/12/18 01:31:09;;;;;;;7.85;4.82;;;;;;;;;;5033911;28;20406;-66
2023/12/18 01:33:38;;;;;;;6.65;4.20;;;;;;;;;;5040210;28;20052;-65
2023/12/18 01:36:07;;;;;;;8.98;4.43;;;;;;;;;;5033643;28;20112;-68
2023/12/18 01:38:36;;;;;;;6.60;4.57;;;;;;;;;;5031743;28;20071;-64
2023/12/18 01:41:04;;;;;;;7.95;4.78;;;;;;;;;;5033934;28;20095;-67
2023/12/18 01:43:33;;;;;;;6.78;4.20;;;;;;;;;;5039046;28;20107;-68
2023/12/18 01:46:03;;;;;;;7.35;4.65;;;;;;;;;;5041616;28;20581;-65
2023/12/18 01:48:33;;;;;;;10.52;5.00;;;;;;;;;;5037954;28;20053;-65
2023/12/18 01:51:02;;;;;;;8.77;4.57;;;;;;;;;;5038947;28;20045;-64
2023/12/18 01:53:32;;;;;;;5.85;4.15;;;;;;;;;;5035955;28;20060;-71
2023/12/18 01:56:02;;;;;;;13.38;4.90;;;;;;;;;;5037429;28;20044;-67
2023/12/18 01:58:30;;;;;;;7.40;4.18;;;;;;;;;;5039005;28;20052;-68
2023/12/18 02:00:59;;;;;;;8.05;4.97;;;;;;;;;;5041448;28;20160;-65
2023/12/18 02:03:29;;;;;;;7.57;4.53;;;;;;;;;;5038039;28;20049;-65
2023/12/18 02:05:58;;;;;;;7.22;4.30;;;;;;;;;;5037735;28;20470;-67
2023/12/18 02:08:26;;;;;;;6.93;4.13;;;;;;;;;;5039673;28;20155;-71
2023/12/18 02:10:55;;;;;;;6.85;4.65;;;;;;;;;;5037674;28;20050;-65
2023/12/18 02:13:23;;;;;;;9.07;4.07;;;;;;;;;;5039197;28;20045;-65
2023/12/18 02:15:52;;;;;;;7.07;4.57;;;;;;;;;;5038224;28;20045;-64
2023/12/18 02:18:20;;;;;;;6.65;4.70;;;;;;;;;;5036670;28;20054;-67
2023/12/18 02:20:50;;;;;;;8.18;3.95;;;;;;;;;;5040612;28;20057;-66
2023/12/18 02:23:20;;;;;;;8.98;4.18;;;;;;;;;;5035760;28;20466;-65
2023/12/18 02:25:48;;;;;;;5.15;3.70;;;;;;;;;;5040570;28;20056;-65
2023/12/18 02:28:17;;;;;;;7.07;4.07;;;;;;;;;;5038812;28;20049;-64
2023/12/18 02:30:46;;;;;;;6.43;4.03;;;;;;;;;;5039016;28;20084;-68
2023/12/18 02:33:14;;;;;;;7.40;4.28;;;;;;;;;;5042028;28;20482;-68
2023/12/18 02:35:44;;;;;;;6.20;4.10;;;;;;;;;;5037547;28;20363;-65
2023/12/18 02:38:12;;;;;;;7.25;3.80;;;;;;;;;;5036320;28;20191;-65
2023/12/18 02:40:42;;;;;;;8.38;4.05;;;;;;;;;;5038199;28;20107;-67
2023/12/18 02:43:11;;;;;;;4.57;3.90;;;;;;;;;;5038208;28;20057;-67
2023/12/18 02:45:39;;;;;;;7.45;3.65;;;;;;;;;;5039075;28;20484;-67
2023/12/18 02:48:08;;;;;;;9.43;4.30;;;;;;;;;;5036163;28;20422;-68
2023/12/18 02:50:36;;;;;;;6.95;3.53;;;;;;;;;;5037036;28;20080;-64
2023/12/18 02:53:05;;;;;;;4.85;3.95;;;;;;;;;;5040149;28;20041;-66
2023/12/18 02:55:33;;;;;;;5.53;3.72;;;;;;;;;;5037109;28;20111;-67
2023/12/18 02:58:03;;;;;;;6.40;3.70;;;;;;;;;;5035486;28;20057;-67
2023/12/18 03:00:32;;;;;;;4.13;3.28;;;;;;;;;;5037626;28;21392;-65
2023/12/18 03:03:00;;;;;;;8.00;3.97;;;;;;;;;;5037112;28;20060;-65
2023/12/18 03:05:28;;;;;;;7.18;3.85;;;;;;;;;;5036044;28;20041;-65
2023/12/18 03:07:57;;;;;;;6.10;3.70;;;;;;;;;;5036270;28;20054;-66
2023/12/18 03:10:25;;;;;;;5.70;3.88;;;;;;;;;;5036822;28;20099;-69
2023/12/18 03:12:54;;;;;;;5.85;4.13;;;;;;;;;;5038087;28;20104;-68
2023/12/18 03:15:23;;;;;;;7.88;3.72;;;;;;;;;;5041227;28;20125;-65
2023/12/18 03:17:52;;;;;;;4.95;3.33;;;;;;;;;;5038956;28;20056;-65
2023/12/18 03:20:20;;;;;;;4.38;2.63;;;;;;;;;;5037650;28;20041;-68
2023/12/18 03:22:48;;;;;;;8.55;3.10;;;;;;;;;;5039078;28;20077;-64
2023/12/18 03:25:17;;;;;;;6.65;3.35;;;;;;;;;;5036067;28;20044;-65
2023/12/18 03:27:45;;;;;;;6.22;3.63;;;;;;;;;;5034035;28;20781;-70
2023/12/18 03:30:14;;;;;;;5.18;3.38;;;;;;;;;;5035513;28;20037;-64
2023/12/18 03:32:44;;;;;;;4.85;3.28;;;;;;;;;;5036062;28;20551;-67
2023/12/18 03:35:12;;;;;;;5.28;3.65;;;;;;;;;;5035191;28;20069;-66
2023/12/18 03:37:40;;;;;;;5.22;3.75;;;;;;;;;;5037393;28;20060;-68
2023/12/18 03:40:10;;;;;;;3.78;2.90;;;;;;;;;;5040582;28;20057;-66
2023/12/18 03:42:38;;;;;;;5.75;3.10;;;;;;;;;;5038199;28;20395;-64
2023/12/18 03:45:07;;;;;;;5.78;3.05;;;;;;;;;;5037455;28;20049;-68
2023/12/18 03:47:36;;;;;;;6.20;3.83;;;;;;;;;;5036393;28;20052;-69
2023/12/18 03:50:06;;;;;;;4.75;3.38;;;;;;;;;;5034946;28;20052;-69
2023/12/18 03:52:35;;;;;;;5.82;3.08;;;;;;;;;;5035580;28;20544;-66
2023/12/18 03:55:03;;;;;;;4.07;2.90;;;;;;;;;;5038745;28;20083;-65
2023/12/18 03:57:31;;;;;;;3.58;3.00;;;;;;;;;;5039132;28;20586;-65
2023/12/18 04:00:00;;;;;;;6.90;2.75;;;;;;;;;;5035132;28;20045;-65
2023/12/18 04:02:28;;;;;;;4.10;2.83;;;;;;;;;;5037067;28;20092;-66
2023/12/18 04:04:56;;;;;;;3.28;2.70;;;;;;;;;;5035588;28;20119;-67
2023/12/18 04:07:26;;;;;;;5.63;2.88;;;;;;;;;;5035782;28;20038;-65
2023/12/18 04:09:54;;;;;;;5.85;3.38;;;;;;;;;;5038948;28;20068;-65
2023/12/18 04:12:23;;;;;;;3.60;2.45;;;;;;;;;;5038333;28;20049;-67
2023/12/18 04:14:51;;;;;;;4.28;2.78;;;;;;;;;;5035155;28;20498;-66
2023/12/18 04:17:19;;;;;;;4.88;2.67;;;;;;;;;;5037277;28;20179;-69
2023/12/18 04:19:48;;;;;;;4.90;2.88;;;;;;;;;;5037025;28;20498;-65
2023/12/18 04:22:16;;;;;;;3.95;2.97;;;;;;;;;;5036817;28;20050;-64
2023/12/18 04:24:46;;;;;;;5.38;3.22;;;;;;;;;;5036105;28;20060;-66
2023/12/18 04:27:14;;;;;;;4.20;2.72;;;;;;;;;;5035149;28;20060;-71
2023/12/18 04:29:43;;;;;;;6.38;2.35;;;;;;;;;;5035436;28;20056;-66
2023/12/18 04:32:11;;;;;;;4.28;2.92;;;;;;;;;;5037587;28;20057;-68
2023/12/18 04:34:40;;;;;;;5.38;3.05;;;;;;;;;;5039172;28;20048;-65
2023/12/18 04:37:09;;;;;;;5.30;2.78;;;;;;;;;;5039530;28;20124;-67
2023/12/18 04:39:38;;;;;;;5.63;2.60;;;;;;;;;;5034503;28;20081;-70
2023/12/18 04:42:08;;;;;;;5.43;2.40;;;;;;;;;;5038795;28;20464;-65
2023/12/18 04:44:36;;;;;;;4.18;2.45;;;;;;;;;;5039536;28;20137;-65
2023/12/18 04:47:05;;;;;;;3.03;2.50;;;;;;;;;;5032024;28;20069;-66
2023/12/18 04:49:33;;;;;;;4.20;2.50;;;;;;;;;;5032909;28;20050;-67
2023/12/18 04:52:02;;;;;;;6.95;2.60;;;;;;;;;;5036027;28;20045;-66
2023/12/18 04:54:30;;;;;;;3.17;2.67;;;;;;;;;;5035357;28;20049;-65
2023/12/18 04:56:59;;;;;;;2.95;2.20;;;;;;;;;;5029716;28;20057;-65
2023/12/18 04:59:29;;;;;;;4.30;2.13;;;;;;;;;;5034390;28;20298;-69
2023/12/18 05:01:57;;;;;;;2.50;2.00;;;;;;;;;;5035844;28;20081;-68
2023/12/18 05:04:26;;;;;;;2.10;1.85;;;;;;;;;;5029404;28;20384;-70
2023/12/18 05:06:54;;;;;;;5.25;2.17;;;;;;;;;;5037733;28;20055;-68
2023/12/18 05:09:23;;;;;;;6.38;2.88;;;;;;;;;;5032814;28;20491;-65
2023/12/18 05:11:51;;;;;;;3.42;2.38;;;;;;;;;;5036998;28;20132;-65
2023/12/18 05:14:19;;;;;;;3.47;2.15;;;;;;;;;;5036736;28;20464;-64
2023/12/18 05:16:49;;;;;;;3.78;2.35;;;;;;;;;;5034690;28;20041;-65
2023/12/18 05:19:17;;;;;;;2.85;2.10;;;;;;;;;;5033442;28;20080;-69
2023/12/18 05:21:46;;;;;;;2.88;2.03;;;;;;;;;;5042732;28;20063;-65
2023/12/18 05:24:14;;;;;;;2.42;2.17;;;;;;;;;;5038038;28;20036;-65
2023/12/18 05:26:43;;;;;;;5.63;2.30;;;;;;;;;;5041316;28;20050;-65
2023/12/18 05:29:11;;;;;;;3.42;2.20;;;;;;;;;;5038112;28;20053;-65
2023/12/18 05:31:39;;;;;;;2.53;1.75;;;;;;;;;;5038998;28;20053;-68
2023/12/18 05:34:09;;;;;;;2.08;1.90;;;;;;;;;;5037485;28;20129;-65
2023/12/18 05:36:38;;;;;;;6.50;2.13;;;;;;;;;;5037850;28;20053;-66
2023/12/18 05:39:06;;;;;;;3.28;2.08;;;;;;;;;;5037653;28;20044;-68
2023/12/18 05:41:35;;;;;;;3.50;1.70;;;;;;;;;;5037589;28;20041;-65
2023/12/18 05:44:03;;;;;;;4.65;2.20;;;;;;;;;;5039407;28;20136;-66
2023/12/18 05:46:31;;;;;;;2.85;1.80;;;;;;;;;;5036097;28;20115;-69
2023/12/18 05:49:00;;;;;;;1.92;1.73;;;;;;;;;;5038729;28;20049;-65
2023/12/18 05:51:29;;;;;;;4.93;1.98;;;;;;;;;;5038733;28;20053;-69
2023/12/18 05:53:58;;;;;;;2.15;1.73;;;;;;;;;;5036232;28;20057;-66
2023/12/18 05:56:26;;;;;;;2.20;1.65;;;;;;;;;;5038702;28;20145;-66
2023/12/18 05:58:55;;;;;;;2.80;1.80;;;;;;;;;;5036542;28;20114;-65
2023/12/18 06:01:24;;;;;;;2.92;2.10;;;;;;;;;;5039824;28;20049;-65
2023/12/18 06:03:53;;;;;;;3.10;1.98;;;;;;;;;;5041769;28;20049;-66
2023/12/18 06:06:21;;;;;;;3.40;1.77;;;;;;;;;;5040616;28;20080;-66
2023/12/18 06:08:51;;;;;;;2.70;1.77;;;;;;;;;;5039415;28;20050;-66
2023/12/18 06:11:19;;;;;;;7.63;2.10;;;;;;;;;;5039629;28;20045;-67
2023/12/18 06:13:48;;;;;;;2.03;1.60;;;;;;;;;;5042927;28;20124;-63
2023/12/18 06:16:16;;;;;;;2.60;1.92;;;;;;;;;;5036576;28;20056;-68
2023/12/18 06:18:45;;;;;;;5.75;1.77;;;;;;;;;;5040714;28;20106;-69
2023/12/18 06:21:13;;;;;;;2.25;1.65;;;;;;;;;;5040412;28;20142;-68
2023/12/18 06:23:43;;;;;;;2.17;1.80;;;;;;;;;;5040132;28;20592;-67
2023/12/18 06:26:13;;;;;;;4.72;1.75;;;;;;;;;;5040253;28;20106;-69
2023/12/18 06:28:41;;;;;;;2.95;1.80;;;;;;;;;;5035449;28;20547;-67
2023/12/18 06:31:10;;;;;;;2.75;1.23;;;;;;;;;;5038821;28;20055;-66
2023/12/18 06:33:39;;;;;;;4.45;1.92;;;;;;;;;;5038907;28;20499;-68
2023/12/18 06:36:08;;;;;;;2.67;1.67;;;;;;;;;;5036933;28;20103;-69
2023/12/18 06:38:36;;;;;;;3.28;1.85;;;;;;;;;;5036748;28;20065;-67
2023/12/18 06:41:05;;;;;;;3.13;1.50;;;;;;;;;;5038319;28;20045;-60
2023/12/18 06:43:35;;;;;;;2.42;1.90;;;;;;;;;;5030427;28;20063;-62
2023/12/18 06:46:04;;;;;;;2.50;1.38;;;;;;;;;;5038639;28;20091;-61
2023/12/18 06:48:33;;;;;;;2.45;1.80;;;;;;;;;;5035104;28;20052;-60
2023/12/18 06:51:01;;;;;;;3.20;2.17;;;;;;;;;;5036747;28;20049;-60
2023/12/18 06:53:30;;;;;;;2.20;1.55;;;;;;;;;;5035082;28;20111;-61
2023/12/18 06:55:58;;;;;;;2.28;1.52;;;;;;;;;;5041424;28;20160;-61
2023/12/18 06:58:26;;;;;;;2.75;1.60;;;;;;;;;;5038276;28;20122;-62
2023/12/18 07:00:56;;;;;;;3.75;1.45;;;;;;;;;;5038117;28;20049;-60
2023/12/18 07:03:25;;;;;;;1.80;1.63;;;;;;;;;;5037887;28;20045;-61
2023/12/18 07:05:55;;;;;;;2.20;1.52;;;;;;;;;;5035603;28;20049;-62
2023/12/18 07:08:23;;;;;;;1.95;1.38;;;;;;;;;;5037968;28;20049;-61
2023/12/18 07:10:52;;;;;;;2.17;1.70;;;;;;;;;;5036062;28;20499;-64
2023/12/18 07:13:20;;;;;;;2.03;1.50;;;;;;;;;;5038726;28;20053;-62
2023/12/18 07:15:49;;;;;;;2.53;1.60;;;;;;;;;;5036216;28;20110;-61
2023/12/18 07:18:18;;;;;;;1.65;1.50;;;;;;;;;;5035796;28;20068;-61
2023/12/18 07:20:47;;;;;;;2.47;1.80;;;;;;;;;;5033388;28;20045;-63
2023/12/18 07:23:16;;;;;;;2.35;1.52;;;;;;;;;;5034785;28;20049;-62
2023/12/18 07:25:44;;;;;;;3.08;1.52;;;;;;;;;;5039572;28;20053;-63
2023/12/18 07:28:12;;;;;;;1.60;1.50;;;;;;;;;;5039308;28;20061;-63
2023/12/18 07:30:41;;;;;;;3.03;1.98;;;;;;;;;;5039777;28;20049;-62
2023/12/18 07:33:09;;;;;;;1.75;1.30;;;;;;;;;;5032586;28;20045;-63
2023/12/18 07:35:41;;;;;;;1.75;1.50;;;;;;;;;;5038224;28;20147;-64
2023/12/18 07:38:09;;;;;;;2.22;1.60;;;;;;;;;;5038502;28;20049;-62
2023/12/18 07:40:37;;;;;;;2.58;1.45;;;;;;;;;;5039160;28;20044;-62
2023/12/18 07:43:06;;;;;;;4.50;1.80;;;;;;;;;;5035333;28;20457;-62
2023/12/18 07:45:34;;;;;;;2.55;1.50;;;;;;;;;;5040159;28;20048;-64
2023/12/18 07:48:03;;;;;;;1.83;1.58;;;;;;;;;;5034852;28;20067;-65
2023/12/18 07:50:31;;;;;;;1.77;1.45;;;;;;;;;;5034751;28;20611;-61
2023/12/18 07:53:01;;;;;;;5.63;2.13;;;;;;;;;;5033360;28;20072;-62
2023/12/18 07:55:30;;;;;;;3.05;1.83;;;;;;;;;;5039438;28;20410;-61
2023/12/18 07:57:58;;;;;;;2.28;1.52;;;;;;;;;;5036626;28;20073;-62
2023/12/18 08:00:26;;;;;;;1.85;1.35;;;;;;;;;;5041215;28;21295;-62
2023/12/18 08:02:55;;;;;;;2.15;1.50;;;;;;;;;;5039260;28;20505;-64
2023/12/18 08:05:24;;;;;;;2.03;1.50;;;;;;;;;;5033416;28;20048;-60
2023/12/18 08:07:53;;;;;;;3.00;1.65;;;;;;;;;;5037018;28;20482;-62
2023/12/18 08:10:23;;;;;;;3.90;2.08;;;;;;;;;;5033279;28;20046;-62
2023/12/18 08:12:51;;;;;;;3.83;1.73;;;;;;;;;;5036023;28;20045;-61
2023/12/18 08:15:20;;;;;;;1.90;1.65;;;;;;;;;;5039153;28;20069;-63
2023/12/18 08:17:48;;;;;;;1.60;1.35;;;;;;;;;;5040217;28;20045;-60
2023/12/18 08:20:17;;;;;;;2.88;1.58;;;;;;;;;;5041130;28;20124;-61
2023/12/18 08:22:45;;;;;;;2.20;1.40;;;;;;;;;;5037465;28;20106;-66
2023/12/18 08:25:13;;;;;;;6.05;1.95;;;;;;;;;;5036056;28;20049;-60
2023/12/18 08:27:43;;;;;;;1.75;1.40;;;;;;;;;;5033057;28;20077;-64
2023/12/18 08:30:12;;;;;;;2.50;1.70;;;;;;;;;;5033479;28;20128;-60
2023/12/18 08:32:41;;;;;;;5.97;2.25;;;;;;;;;;5038279;28;20050;-63
2023/12/18 08:35:10;;;;;;;1.98;1.35;;;;;;;;;;5038351;28;20049;-63
2023/12/18 08:37:38;;;;;;;2.08;1.60;;;;;;;;;;5035674;28;20042;-63
2023/12/18 08:40:07;;;;;;;3.35;2.17;;;;;;;;;;5039395;28;20061;-62
2023/12/18 08:42:36;;;;;;;4.07;2.03;;;;;;;;;;5037841;28;20531;-61
2023/12/18 08:45:06;;;;;;;1.95;1.30;;;;;;;;;;5036758;28;20053;-61
2023/12/18 08:47:34;;;;;;;1.60;1.42;;;;;;;;;;5036742;28;20064;-61
2023/12/18 08:50:03;;;;;;;1.90;1.70;;;;;;;;;;5034946;28;20514;-61
2023/12/18 08:52:31;;;;;;;3.75;1.77;;;;;;;;;;5033019;28;20057;-64
2023/12/18 08:55:00;;;;;;;1.55;1.35;;;;;;;;;;5034490;28;20457;-67
2023/12/18 08:57:28;;;;;;;3.65;1.60;;;;;;;;;;5032632;28;20053;-60
2023/12/18 08:59:57;;;;;;;1.65;1.52;;;;;;;;;;5031151;28;20046;-63
2023/12/18 09:02:26;;;;;;;2.20;1.73;;;;;;;;;;5042092;28;20040;-62
2023/12/18 09:04:55;;;;;;;2.22;1.85;;;;;;;;;;5038207;28;20106;-65
2023/12/18 09:07:23;;;;;;;2.85;1.45;;;;;;;;;;5033071;28;20199;-61
2023/12/18 09:09:51;;;;;;;3.17;1.75;;;;;;;;;;5036201;28;20079;-61
2023/12/18 09:12:20;;;;;;;2.22;2.00;;;;;;;;;;5040048;28;20073;-64
2023/12/18 09:14:49;;;;;;;7.38;2.30;;;;;;;;;;5019290;28;20049;-61
2023/12/18 09:17:17;;;;;;;7.20;2.78;;;;;;;;;;5035315;28;20110;-61
2023/12/18 09:19:47;;;;;;;6.05;2.35;;;;;;;;;;5032523;28;20205;-61
2023/12/18 09:22:15;;;;;;;5.95;3.13;;;;;;;;;;5038506;28;20057;-62
2023/12/18 09:24:44;;;;;;;7.47;3.58;;;;;;;;;;5036572;28;20058;-61
2023/12/18 09:27:13;;;;;;;6.75;3.50;;;;;;;;;;5032337;28;20064;-61
2023/12/18 09:29:41;;;;;;;10.75;4.30;;;;;;;;;;5035182;28;20046;-61
2023/12/18 09:32:10;;;;;;;4.25;2.90;;;;;;;;;;5037792;28;20045;-61
2023/12/18 09:34:39;;;;;;;5.68;3.10;;;;;;;;;;5039876;28;20488;-62
2023/12/18 09:37:09;;;;;;;5.60;2.80;;;;;;;;;;5031989;28;20100;-63
2023/12/18 09:39:37;;;;;;;4.50;3.05;;;;;;;;;;5036344;28;20057;-66
2023/12/18 09:42:06;;;;;;;4.22;2.67;;;;;;;;;;5032087;28;20135;-62
2023/12/18 09:44:34;;;;;;;4.43;2.92;;;;;;;;;;5030293;28;20107;-62
2023/12/18 09:47:03;;;;;;;3.97;3.00;;;;;;;;;;5035997;28;20091;-61
2023/12/18 09:49:32;;;;;;;4.28;2.88;;;;;;;;;;5035927;28;20057;-60
2023/12/18 09:52:02;;;;;;;4.20;2.90;;;;;;;;;;5032091;28;20115;-64
2023/12/18 09:54:32;;;;;;;5.72;3.10;;;;;;;;;;5031053;28;20143;-67
2023/12/18 09:57:01;;;;;;;5.90;3.05;;;;;;;;;;5038545;28;20047;-61
2023/12/18 09:59:29;;;;;;;4.47;3.00;;;;;;;;;;5035713;28;20053;-65
2023/12/18 10:01:58;;;;;;;5.35;3.22;;;;;;;;;;5034815;28;20048;-65
2023/12/18 10:04:26;;;;;;;6.97;3.33;;;;;;;;;;5039138;28;21359;-61
2023/12/18 10:06:55;;;;;;;6.63;2.92;;;;;;;;;;5035678;28;20311;-62
2023/12/18 10:09:23;;;;;;;5.13;2.88;;;;;;;;;;5039997;28;20045;-61
2023/12/18 10:11:53;;;;;;;5.00;3.60;;;;;;;;;;5039859;28;20087;-63
2023/12/18 10:14:22;;;;;;;4.97;2.72;;;;;;;;;;5041511;28;20509;-59
2023/12/18 10:16:51;;;;;;;4.72;3.10;;;;;;;;;;5039056;28;20411;-65
2023/12/18 10:19:19;;;;;;;7.35;3.22;;;;;;;;;;5040150;28;20107;-62
2023/12/18 10:21:49;;;;;;;4.07;2.72;;;;;;;;;;5035583;28;20417;-62
2023/12/18 10:24:18;;;;;;;5.10;3.60;;;;;;;;;;5041730;28;20144;-62
2023/12/18 10:26:48;;;;;;;8.43;3.65;;;;;;;;;;5041333;28;20055;-61
2023/12/18 10:29:18;;;;;;;5.65;3.35;;;;;;;;;;5036843;28;20045;-61
2023/12/18 10:31:47;;;;;;;6.68;3.60;;;;;;;;;;5036873;28;20126;-64
2023/12/18 10:34:18;;;;;;;5.70;3.58;;;;;;;;;;5041331;28;20132;-64
2023/12/18 10:36:47;;;;;;;5.70;3.50;;;;;;;;;;5036600;28;20045;-60
2023/12/18 10:39:18;;;;;;;6.63;3.70;;;;;;;;;;5041863;28;20133;-62
2023/12/18 10:41:52;;;;;;;4.88;3.22;;;;;;;;;;5039467;28;20355;-64
2023/12/18 10:44:23;;;;;;;5.95;3.65;;;;;;;;;;5039680;28;20064;-63
2023/12/18 10:46:51;;;;;;;5.00;3.22;;;;;;;;;;5038938;28;20065;-60
2023/12/18 10:49:20;;;;;;;11.70;4.07;;;;;;;;;;5038628;28;20074;-61
2023/12/18 10:51:49;;;;;;;9.57;4.10;;;;;;;;;;5040872;28;20037;-62
2023/12/18 10:54:18;;;;;;;5.88;3.80;;;;;;;;;;5042149;28;20048;-62
2023/12/18 10:56:47;;;;;;;6.45;3.25;;;;;;;;;;5034713;28;20045;-64
2023/12/18 10:59:17;;;;;;;6.57;3.70;;;;;;;;;;5039130;28;20126;-64
2023/12/18 11:01:48;;;;;;;6.50;3.60;;;;;;;;;;5041378;28;20502;-61
2023/12/18 11:04:18;;;;;;;6.38;3.33;;;;;;;;;;5040688;28;20057;-61
2023/12/18 11:06:47;;;;;;;5.63;3.75;;;;;;;;;;5036462;28;20049;-61
2023/12/18 11:09:16;;;;;;;5.15;2.72;;;;;;;;;;5039898;28;20504;-61
2023/12/18 11:11:44;;;;;;;6.40;2.55;;;;;;;;;;5041601;28;20048;-64
2023/12/18 11:14:15;;;;;;;3.60;2.80;;;;;;;;;;5040384;28;20045;-61
2023/12/18 11:16:51;;;;;;;6.65;2.63;;;;;;;;;;5034622;28;20490;-64
2023/12/18 11:19:26;;;;;;;5.10;2.78;;;;;;;;;;5040372;28;20049;-64
2023/12/18 11:21:55;;;;;;;3.38;2.22;;;;;;;;;;5040997;28;20052;-60
2023/12/18 11:24:23;;;;;;;2.75;2.17;;;;;;;;;;5040026;28;20107;-60
2023/12/18 11:26:52;;;;;;;4.18;2.50;;;;;;;;;;5041386;28;20049;-63
2023/12/18 11:29:33;;;;;;;7.85;2.60;;;;;;;;;;5037626;28;20045;-61
2023/12/18 11:32:03;;;;;;;5.07;2.42;;;;;;;;;;5038436;28;20059;-63
2023/12/18 11:34:33;;;;;;;4.15;2.30;;;;;;;;;;5039051;28;20045;-60
2023/12/18 11:37:02;;;;;;;5.60;2.33;;;;;;;;;;5032228;28;20060;-60
2023/12/18 11:39:35;;;;;;;2.45;1.90;;;;;;;;;;5039587;28;20053;-63
2023/12/18 11:42:04;;;;;;;4.60;2.72;;;;;;;;;;5039291;28;20089;-63
2023/12/18 11:44:35;;;;;;;4.30;2.47;;;;;;;;;;5037426;28;20056;-61
2023/12/18 11:47:03;;;;;;;10.38;2.35;;;;;;;;;;5037258;28;20099;-60
2023/12/18 11:49:33;;;;;;;5.55;3.00;;;;;;;;;;5034419;28;20053;-61
2023/12/18 11:52:17;;;;;;;3.60;2.03;;;;;;;;;;5035898;28;20052;-61
2023/12/18 11:54:45;;;;;;;3.65;1.80;;;;;;;;;;5036365;28;20464;-61
2023/12/18 11:57:20;;;;;;;2.60;1.65;;;;;;;;;;5035607;28;20052;-64
2023/12/18 11:59:49;;;;;;;2.30;1.65;;;;;;;;;;5035636;28;20458;-63
2023/12/18 12:02:18;;;;;;;3.95;1.73;;;;;;;;;;5036378;28;20073;-63
2023/12/18 12:04:48;;;;;;;2.65;1.48;;;;;;;;;;5035812;28;20639;-60
2023/12/18 12:07:16;;;;;;;5.93;1.75;;;;;;;;;;5035160;28;20057;-63
2023/12/18 12:09:45;;;;;;;1.88;1.45;;;;;;;;;;5038549;28;20533;-61
2023/12/18 12:12:14;;;;;;;3.40;1.00;;;;;;;;;;5033539;28;20037;-60
2023/12/18 12:14:43;;;;;;;4.28;1.58;;;;;;;;;;5037083;28;20054;-61
2023/12/18 12:17:12;;;;;;;2.00;1.27;;;;;;;;;;5036708;28;20057;-63
2023/12/18 12:19:43;;;;;;;2.72;1.23;;;;;;;;;;5035795;28;20057;-62
2023/12/18 12:22:13;;;;;;;4.50;1.13;;;;;;;;;;5036027;28;20887;-61
2023/12/18 12:24:42;;;;;;;7.95;1.80;;;;;;;;;;5038764;28;20049;-60
2023/12/18 12:27:11;;;;;;;3.50;1.33;;;;;;;;;;5036572;28;20040;-62
2023/12/18 12:29:40;;;;;;;6.30;1.60;;;;;;;;;;5037636;28;20144;-64
2023/12/18 12:32:11;;;;;;;1.80;1.23;;;;;;;;;;5039056;28;20058;-62
2023/12/18 12:34:42;;;;;;;2.45;0.88;;;;;;;;;;5035510;28;20061;-61
2023/12/18 12:37:12;;;;;;;1.67;0.98;;;;;;;;;;5039702;28;20049;-68
2023/12/18 12:39:57;;;;;;;4.53;0.90;;;;;;;;;;5032799;28;20403;-62
2023/12/18 12:42:26;;;;;;;;;;;;;;;;;;5035835;28;20099;-62
2023/12/18 12:44:54;;;;;;;6.28;1.30;;;;;;;;;;5039387;28;19928;-60
2023/12/18 12:47:23;;;;;;;2.15;1.05;;;;;;;;;;5035547;28;20037;-61
2023/12/18 12:49:52;;;;;;;2.08;1.00;;;;;;;;;;5037767;28;20095;-64
2023/12/18 12:52:21;;;;;;;5.95;1.08;;;;;;;;;;5034777;28;20498;-63
2023/12/18 12:54:51;;;;;;;1.13;0.63;;;;;;;;;;5036394;28;20560;-63
2023/12/18 12:57:19;;;;;;;2.65;1.13;;;;;;;;;;5034485;28;20060;-59
2023/12/18 12:59:51;;;;;;;1.10;0.90;;;;;;;;;;5039277;28;20056;-61
2023/12/18 13:02:20;;;;;;;3.47;0.93;;;;;;;;;;5033406;28;20053;-64
2023/12/18 13:04:49;;;;;;;1.55;0.80;;;;;;;;;;5033118;28;20048;-61
2023/12/18 13:07:18;;;;;;;1.13;0.80;;;;;;;;;;5035329;28;20056;-63
2023/12/18 13:09:46;;;;;;;1.90;0.68;;;;;;;;;;5037487;28;20049;-62
2023/12/18 13:12:17;;;;;;;1.75;0.85;;;;;;;;;;5035458;28;20123;-65
2023/12/18 13:14:46;;;;;;;1.70;0.98;;;;;;;;;;5035132;28;20045;-66
2023/12/18 13:17:13;;;;;;;1.58;1.10;;;;;;;;;;5033085;28;20061;-61
2023/12/18 13:19:42;;;;;;;2.00;1.10;;;;;;;;;;5035094;28;20049;-63
2023/12/18 13:22:11;;;;;;;1.05;0.90;;;;;;;;;;5040138;28;20493;-60
2023/12/18 13:24:39;;;;;;;3.10;1.08;;;;;;;;;;5036298;28;20050;-62
2023/12/18 13:27:07;;;;;;;1.13;0.93;;;;;;;;;;5034960;28;20465;-64
2023/12/18 13:29:37;;;;;;;1.20;0.93;;;;;;;;;;5035608;28;20049;-63
2023/12/18 13:32:06;;;;;;;1.83;0.85;;;;;;;;;;5034937;28;20045;-62
2023/12/18 13:34:35;;;;;;;1.80;0.95;;;;;;;;;;5040558;28;20049;-61
2023/12/18 13:37:06;;;;;;;0.85;0.68;;;;;;;;;;5034614;28;20600;-60
2023/12/18 13:39:36;;;;;;;1.50;0.90;;;;;;;;;;5042174;28;20057;-61
2023/12/18 13:42:05;;;;;;;1.58;1.10;;;;;;;;;;5042070;28;20049;-61
2023/12/18 13:44:33;;;;;;;1.88;1.30;;;;;;;;;;5037707;28;20062;-61
2023/12/18 13:47:03;;;;;;;2.97;0.90;;;;;;;;;;5037902;28;20049;-63
2023/12/18 13:49:31;;;;;;;1.05;0.80;;;;;;;;;;5038005;28;20080;-61
2023/12/18 13:52:00;;;;;;;1.65;1.10;;;;;;;;;;5034186;28;20075;-62
2023/12/18 13:54:27;;;;;;;3.40;1.00;;;;;;;;;;5037982;28;20060;-62
2023/12/18 13:56:56;;;;;;;3.00;1.20;;;;;;;;;;5036003;28;20049;-63
2023/12/18 13:59:26;;;;;;;1.35;1.08;;;;;;;;;;5037467;28;20049;-62
2023/12/18 14:01:54;;;;;;;7.75;1.23;;;;;;;;;;5035846;28;20061;-61
2023/12/18 14:04:24;;;;;;;1.63;1.00;;;;;;;;;;5037122;28;20045;-62
2023/12/18 14:06:53;;;;;;;4.40;1.02;;;;;;;;;;5039618;28;20056;-61
2023/12/18 14:09:24;;;;;;;3.20;1.08;;;;;;;;;;5039775;28;20510;-65
2023/12/18 14:11:54;;;;;;;2.65;1.10;;;;;;;;;;5038439;28;20102;-61
2023/12/18 14:14:22;;;;;;;1.80;0.85;;;;;;;;;;5039594;28;20498;-61
2023/12/18 14:16:51;;;;;;;2.65;1.00;;;;;;;;;;5039114;28;20098;-61
2023/12/18 14:19:19;;;;;;;1.27;1.00;;;;;;;;;;5037019;28;20483;-63
2023/12/18 14:21:49;;;;;;;2.47;1.38;;;;;;;;;;5037896;28;20107;-63
2023/12/18 14:24:18;;;;;;;2.15;0.95;;;;;;;;;;5039249;28;20041;-61
2023/12/18 14:26:47;;;;;;;2.92;1.00;;;;;;;;;;5037998;28;20049;-61
2023/12/18 14:29:15;;;;;;;5.75;1.30;;;;;;;;;;5040274;28;20112;-62
2023/12/18 14:31:43;;;;;;;2.08;1.10;;;;;;;;;;5036378;28;20731;-62
2023/12/18 14:34:12;;;;;;;1.02;0.93;;;;;;;;;;5041461;28;20080;-61
2023/12/18 14:36:41;;;;;;;1.10;1.00;;;;;;;;;;5039328;28;21026;-62
2023/12/18 14:39:10;;;;;;;3.80;1.35;;;;;;;;;;5039322;28;20048;-63
2023/12/18 14:41:39;;;;;;;2.35;1.02;;;;;;;;;;5040397;28;20049;-62
2023/12/18 14:44:07;;;;;;;1.70;0.90;;;;;;;;;;5037358;28;20115;-61
2023/12/18 14:46:36;;;;;;;1.83;1.30;;;;;;;;;;5030371;28;20111;-61
2023/12/18 14:49:04;;;;;;;2.72;1.10;;;;;;;;;;5037050;28;20474;-61
2023/12/18 14:51:33;;;;;;;2.80;1.17;;;;;;;;;;5041823;28;20875;-61
2023/12/18 14:54:01;;;;;;;2.05;1.23;;;;;;;;;;5036447;28;20061;-61